createdAt,value
2022-11-22T00:00:36.242Z,-2.80
2022-11-22T00:03:02.911Z,-2.80
2022-11-22T00:05:36.211Z,-2.80
2022-11-22T00:08:03.665Z,-2.80
2022-11-22T00:10:30.389Z,-2.80
2022-11-22T00:13:03.207Z,-2.70
2022-11-22T00:15:30.432Z,-2.70
2022-11-22T00:17:57.161Z,-2.60
2022-11-22T00:20:30.191Z,-2.60
2022-11-22T00:23:04.158Z,-2.60
2022-11-22T00:25:37.182Z,-2.60
2022-11-22T00:28:10.253Z,-2.60
2022-11-22T00:30:36.907Z,-2.60
2022-11-22T00:33:10.256Z,-2.50
2022-11-22T00:35:59.164Z,-2.50
2022-11-22T00:38:32.185Z,-2.50
2022-11-22T00:40:58.820Z,-2.50
2022-11-22T00:43:25.541Z,-2.50
2022-11-22T00:45:59.172Z,-2.50
2022-11-22T00:48:25.762Z,-2.40
2022-11-22T00:50:59.284Z,-2.50
2022-11-22T00:53:26.145Z,-2.40
2022-11-22T00:55:59.232Z,-2.40
2022-11-22T00:58:25.948Z,-2.40
2022-11-22T01:00:56.571Z,-2.50
2022-11-22T01:03:30.256Z,-2.50
2022-11-22T01:05:56.854Z,-2.40
2022-11-22T01:08:23.726Z,-2.40
2022-11-22T01:11:05.178Z,-2.40
2022-11-22T01:13:39.248Z,-2.40
2022-11-22T01:16:08.206Z,-2.30
2022-11-22T01:18:35.243Z,-2.30
2022-11-22T01:21:08.177Z,-2.30
2022-11-22T01:23:35.253Z,-2.30
2022-11-22T01:26:09.156Z,-2.30
2022-11-22T01:28:43.165Z,-2.30
2022-11-22T01:31:10.113Z,-2.20
2022-11-22T01:33:36.741Z,-2.20
2022-11-22T01:36:10.252Z,-2.20
2022-11-22T01:38:43.654Z,-2.10
2022-11-22T01:41:17.143Z,-2.10
2022-11-22T01:43:50.202Z,-2.10
2022-11-22T01:46:37.321Z,-2.10
2022-11-22T01:49:35.251Z,-2.10
2022-11-22T01:52:13.849Z,-2.10
2022-11-22T01:54:49.211Z,-2.10
2022-11-22T01:57:20.784Z,-2.20
2022-11-22T02:00:01.172Z,-2.20
2022-11-22T02:02:28.327Z,-2.20
2022-11-22T02:05:04.201Z,-2.20
2022-11-22T02:08:00.197Z,-2.20
2022-11-22T02:10:29.043Z,-2.20
2022-11-22T02:12:58.890Z,-2.20
2022-11-22T02:15:32.202Z,-2.30
2022-11-22T02:17:58.886Z,-2.30
2022-11-22T02:20:25.504Z,-2.30
2022-11-22T02:23:27.227Z,-2.30
2022-11-22T02:26:03.225Z,-2.30
2022-11-22T02:28:34.710Z,-2.30
2022-11-22T02:31:01.439Z,-2.30
2022-11-22T02:33:35.180Z,-2.30
2022-11-22T02:36:09.183Z,-2.20
2022-11-22T02:38:42.220Z,-2.20
2022-11-22T02:41:19.231Z,-2.20
2022-11-22T02:43:47.496Z,-2.10
2022-11-22T02:46:27.200Z,-2.10
2022-11-22T02:49:00.244Z,-2.10
2022-11-22T02:51:27.188Z,-2.10
2022-11-22T02:54:00.251Z,-2.10
2022-11-22T02:56:26.836Z,-2.10
2022-11-22T02:58:53.466Z,-2.10
2022-11-22T03:01:26.238Z,-2.10
2022-11-22T03:03:52.922Z,-2.10
2022-11-22T03:06:26.205Z,-2.20
2022-11-22T03:08:56.409Z,-2.10
2022-11-22T03:11:31.134Z,-2.20
2022-11-22T03:13:57.724Z,-2.20
2022-11-22T03:16:24.317Z,-2.20
2022-11-22T03:18:57.172Z,-2.10
2022-11-22T03:21:23.743Z,-2.10
2022-11-22T03:23:57.176Z,-2.10
2022-11-22T03:26:23.955Z,-2.10
2022-11-22T03:28:50.633Z,-2.00
2022-11-22T03:31:24.196Z,-2.00
2022-11-22T03:33:57.188Z,-2.00
2022-11-22T03:36:30.612Z,-2.00
2022-11-22T03:39:04.228Z,-2.00
2022-11-22T03:41:37.180Z,-2.00
2022-11-22T03:44:04.423Z,-2.00
2022-11-22T03:46:31.099Z,-1.90
2022-11-22T03:49:04.155Z,-1.90
2022-11-22T03:51:37.210Z,-1.90
2022-11-22T03:54:03.903Z,-1.90
2022-11-22T03:56:30.616Z,-1.80
2022-11-22T03:59:04.157Z,-1.80
2022-11-22T04:01:37.208Z,-1.80
2022-11-22T04:04:10.133Z,-1.80
2022-11-22T04:06:36.816Z,-1.70
2022-11-22T04:09:11.244Z,-1.70
2022-11-22T04:11:44.136Z,-1.70
2022-11-22T04:14:37.166Z,-1.70
2022-11-22T04:17:03.796Z,-1.70
2022-11-22T04:19:30.645Z,-1.60
2022-11-22T04:22:04.222Z,-1.60
2022-11-22T04:24:49.550Z,-1.60
2022-11-22T04:27:23.151Z,-1.60
2022-11-22T04:29:49.717Z,-1.50
2022-11-22T04:32:41.179Z,-1.50
2022-11-22T04:35:14.416Z,-1.40
2022-11-22T04:37:58.161Z,-1.50
2022-11-22T04:40:24.844Z,-1.40
2022-11-22T04:43:16.144Z,-1.40
2022-11-22T04:45:50.187Z,-1.40
2022-11-22T04:48:17.431Z,-1.40
2022-11-22T04:51:10.215Z,-1.40
2022-11-22T04:53:44.146Z,-1.40
2022-11-22T04:56:18.146Z,-1.40
2022-11-22T04:58:44.827Z,-1.40
2022-11-22T05:01:18.346Z,-1.40
2022-11-22T05:03:45.113Z,-1.40
2022-11-22T05:06:20.224Z,-1.30
2022-11-22T05:08:46.842Z,-1.30
2022-11-22T05:11:20.223Z,-1.30
2022-11-22T05:13:46.861Z,-1.30
2022-11-22T05:16:15.078Z,-1.20
2022-11-22T05:18:48.327Z,-1.30
2022-11-22T05:21:14.961Z,-1.20
2022-11-22T05:24:01.220Z,-1.20
2022-11-22T05:26:30.045Z,-1.20
2022-11-22T05:29:00.566Z,-1.30
2022-11-22T05:31:34.138Z,-1.30
2022-11-22T05:34:01.128Z,-1.20
2022-11-22T05:36:41.168Z,-1.20
2022-11-22T05:39:14.259Z,-1.20
2022-11-22T05:42:02.130Z,-1.20
2022-11-22T05:44:28.766Z,-1.20
2022-11-22T05:47:02.234Z,-1.20
2022-11-22T05:49:29.217Z,-1.20
2022-11-22T05:51:55.978Z,-1.10
2022-11-22T05:54:29.217Z,-1.20
2022-11-22T05:57:03.152Z,-1.10
2022-11-22T05:59:29.868Z,-1.10
2022-11-22T06:01:56.610Z,-1.20
2022-11-22T06:04:30.140Z,-1.10
2022-11-22T06:07:08.355Z,-1.10
2022-11-22T06:09:43.224Z,-1.10
2022-11-22T06:12:16.137Z,-1.10
2022-11-22T06:14:49.241Z,-1.10
2022-11-22T06:17:16.784Z,-1.10
2022-11-22T06:19:50.146Z,-1.00
2022-11-22T06:22:16.749Z,-1.00
2022-11-22T06:24:50.166Z,-1.00
2022-11-22T06:27:16.805Z,-1.00
2022-11-22T06:29:50.164Z,-1.00
2022-11-22T06:32:16.835Z,-1.00
2022-11-22T06:34:50.167Z,-1.00
2022-11-22T06:37:23.151Z,-1.00
2022-11-22T06:39:57.165Z,-1.00
2022-11-22T06:42:23.828Z,-1.00
2022-11-22T06:44:50.506Z,-1.00
2022-11-22T06:47:24.129Z,-0.90
2022-11-22T06:49:57.293Z,-0.90
2022-11-22T06:52:24.081Z,-0.90
2022-11-22T06:54:50.692Z,-0.80
2022-11-22T06:57:24.145Z,-0.80
2022-11-22T06:59:50.743Z,-0.80
2022-11-22T07:02:17.376Z,-0.80
2022-11-22T07:05:17.238Z,-0.70
2022-11-22T07:07:43.242Z,-0.70
2022-11-22T07:10:17.272Z,-0.70
2022-11-22T07:12:43.916Z,-0.70
2022-11-22T07:15:11.078Z,-0.70
2022-11-22T07:17:44.301Z,-0.70
2022-11-22T07:20:17.112Z,-0.60
2022-11-22T07:22:43.726Z,-0.70
2022-11-22T07:25:10.690Z,-0.60
2022-11-22T07:27:44.166Z,-0.60
2022-11-22T07:30:11.314Z,-0.60
2022-11-22T07:32:37.908Z,-0.60
2022-11-22T07:35:11.149Z,-0.50
2022-11-22T07:37:44.571Z,-0.60
2022-11-22T07:40:18.119Z,-0.50
2022-11-22T07:42:57.024Z,-0.50
2022-11-22T07:45:25.174Z,-0.50
2022-11-22T07:47:58.198Z,-0.40
2022-11-22T07:50:24.911Z,-0.40
2022-11-22T07:53:05.256Z,-0.40
2022-11-22T07:55:31.911Z,-0.40
2022-11-22T07:57:59.521Z,-0.40
2022-11-22T08:00:33.220Z,-0.30
2022-11-22T08:03:06.184Z,-0.30
2022-11-22T08:05:32.800Z,-0.20
2022-11-22T08:08:06.212Z,-0.20
2022-11-22T08:10:32.833Z,-0.20
2022-11-22T08:13:07.197Z,-0.20
2022-11-22T08:15:33.986Z,-0.10
2022-11-22T08:18:00.633Z,-0.10
2022-11-22T08:20:34.181Z,-0.10
2022-11-22T08:23:07.526Z,-0.10
2022-11-22T08:25:41.143Z,-0.10
2022-11-22T08:28:07.870Z,0.00
2022-11-22T08:30:41.128Z,0.00
2022-11-22T08:33:14.201Z,0.00
2022-11-22T08:35:47.128Z,0.00
2022-11-22T08:38:27.165Z,0.00
2022-11-22T08:40:54.038Z,0.10
2022-11-22T08:43:20.703Z,0.10
2022-11-22T08:46:02.243Z,0.20
2022-11-22T08:48:30.589Z,0.20
2022-11-22T08:51:06.492Z,0.20
2022-11-22T08:53:35.014Z,0.20
2022-11-22T08:56:03.127Z,0.20
2022-11-22T08:58:37.264Z,0.30
2022-11-22T09:01:09.061Z,0.30
2022-11-22T09:03:37.174Z,0.20
2022-11-22T09:09:22.024Z,0.30
2022-11-22T09:11:52.121Z,0.40
2022-11-22T09:14:25.117Z,0.40
2022-11-22T09:16:58.141Z,0.40
2022-11-22T09:19:25.291Z,0.50
2022-11-22T09:21:52.080Z,0.50
2022-11-22T09:24:25.784Z,0.50
2022-11-22T09:26:52.370Z,0.50
2022-11-22T09:29:19.082Z,0.60
2022-11-22T09:31:52.346Z,0.60
2022-11-22T09:34:19.060Z,0.60
2022-11-22T09:37:06.177Z,0.70
2022-11-22T09:39:53.107Z,0.70
2022-11-22T09:42:55.162Z,0.70
2022-11-22T09:45:35.031Z,0.80
2022-11-22T09:48:28.188Z,0.90
2022-11-22T09:51:09.048Z,0.80
2022-11-22T09:53:56.109Z,0.80
2022-11-22T09:56:26.938Z,0.90
2022-11-22T09:59:13.105Z,0.90
2022-11-22T10:01:45.266Z,0.90
2022-11-22T10:04:26.189Z,0.90
2022-11-22T10:07:03.422Z,0.90
2022-11-22T10:09:48.244Z,1.00
2022-11-22T10:12:41.197Z,1.00
2022-11-22T10:15:40.222Z,1.00
2022-11-22T10:18:29.025Z,1.00
2022-11-22T10:21:02.116Z,1.10
2022-11-22T10:23:29.356Z,1.10
2022-11-22T10:26:18.096Z,1.10
2022-11-22T10:29:20.276Z,1.10
2022-11-22T10:32:05.261Z,1.10
2022-11-22T10:34:56.923Z,1.10
2022-11-22T10:37:42.209Z,1.20
2022-11-22T10:40:40.174Z,1.20
2022-11-22T10:43:42.133Z,1.20
2022-11-22T10:46:27.121Z,1.30
2022-11-22T10:49:13.140Z,1.30
2022-11-22T10:52:09.789Z,1.30
2022-11-22T10:54:57.171Z,1.30
2022-11-22T10:57:38.511Z,1.30
2022-11-22T11:00:28.121Z,1.40
2022-11-22T11:03:05.448Z,1.40
2022-11-22T11:06:21.593Z,1.30
2022-11-22T11:11:58.281Z,1.40
2022-11-22T11:14:37.314Z,1.50
2022-11-22T11:17:13.156Z,1.50
2022-11-22T11:19:43.061Z,1.60
2022-11-22T11:22:09.613Z,1.60
2022-11-22T11:24:47.137Z,1.70
2022-11-22T11:27:17.046Z,1.70
2022-11-22T11:29:57.485Z,1.80
2022-11-22T11:32:24.074Z,1.90
2022-11-22T11:35:04.150Z,1.90
2022-11-22T11:37:36.759Z,1.90
2022-11-22T11:40:38.235Z,1.90
2022-11-22T11:43:22.752Z,2.00
2022-11-22T11:45:56.181Z,2.00
2022-11-22T11:48:28.233Z,2.00
2022-11-22T11:51:20.090Z,2.00
2022-11-22T11:54:04.620Z,2.10
2022-11-22T11:56:45.120Z,2.10
2022-11-22T11:59:32.333Z,2.00
2022-11-22T12:02:13.339Z,2.10
2022-11-22T12:05:17.712Z,2.00
2022-11-22T12:07:52.168Z,2.00
2022-11-22T12:10:29.726Z,2.00
2022-11-22T12:13:18.502Z,2.00
2022-11-22T12:15:57.045Z,2.00
2022-11-22T12:18:59.102Z,2.00
2022-11-22T12:21:59.257Z,2.00
2022-11-22T12:25:16.518Z,2.10
2022-11-22T12:27:41.169Z,2.10
2022-11-22T12:30:12.485Z,2.10
2022-11-22T12:32:53.246Z,2.10
2022-11-22T12:35:23.696Z,2.00
2022-11-22T12:38:07.145Z,2.00
2022-11-22T12:40:48.249Z,2.00
2022-11-22T12:43:36.120Z,2.00
2022-11-22T12:46:19.755Z,2.00
2022-11-22T12:49:07.214Z,2.00
2022-11-22T12:51:47.644Z,2.00
2022-11-22T12:54:26.152Z,2.00
2022-11-22T12:56:56.362Z,2.00
2022-11-22T12:59:49.141Z,2.00
2022-11-22T13:02:45.346Z,2.10
2022-11-22T13:05:24.170Z,2.10
2022-11-22T13:07:58.955Z,2.10
2022-11-22T13:10:56.177Z,2.10
2022-11-22T13:13:36.201Z,2.10
2022-11-22T13:16:14.430Z,2.10
2022-11-22T13:19:04.065Z,2.10
2022-11-22T13:22:03.105Z,2.00
2022-11-22T13:24:47.573Z,2.00
2022-11-22T13:27:38.109Z,2.00
2022-11-22T13:30:05.499Z,2.10
2022-11-22T13:32:34.788Z,2.10
2022-11-22T13:35:24.186Z,2.10
2022-11-22T13:37:54.065Z,2.10
2022-11-22T13:40:57.112Z,2.10
2022-11-22T13:43:52.559Z,2.10
2022-11-22T13:46:57.181Z,2.10
2022-11-22T13:49:37.414Z,2.10
2022-11-22T13:52:24.163Z,2.10
2022-11-22T13:54:52.792Z,2.00
2022-11-22T13:57:41.172Z,2.00
2022-11-22T14:00:23.259Z,2.00
2022-11-22T14:02:54.868Z,2.00
2022-11-22T14:05:52.203Z,2.00
2022-11-22T14:08:30.458Z,2.00
2022-11-22T14:11:03.123Z,2.00
2022-11-22T14:13:59.558Z,2.00
2022-11-22T14:16:33.107Z,2.00
2022-11-22T14:19:44.612Z,2.10
2022-11-22T14:22:29.200Z,2.10
2022-11-22T14:25:12.152Z,2.00
2022-11-22T14:27:56.853Z,2.00
2022-11-22T14:30:51.784Z,2.00
2022-11-22T14:33:31.117Z,2.00
2022-11-22T14:36:06.942Z,1.90
2022-11-22T14:38:45.231Z,1.90
2022-11-22T14:41:34.133Z,1.90
2022-11-22T14:44:16.187Z,1.90
2022-11-22T14:47:09.230Z,1.90
2022-11-22T14:49:55.208Z,1.90
2022-11-22T14:52:25.743Z,1.90
2022-11-22T14:55:08.216Z,1.90
2022-11-22T14:57:44.188Z,1.90
2022-11-22T15:00:31.116Z,1.90
2022-11-22T15:03:16.108Z,1.90
2022-11-22T15:09:21.647Z,1.90
2022-11-22T15:09:50.992Z,1.90
2022-11-22T15:12:50.081Z,1.80
2022-11-22T15:57:44.828Z,1.70
2022-11-22T16:00:24.525Z,1.70
2022-11-22T16:03:04.124Z,1.70
2022-11-22T16:06:10.355Z,1.70
2022-11-22T16:08:32.669Z,1.70
2022-11-22T16:11:00.121Z,1.70
2022-11-22T16:13:28.958Z,1.70
2022-11-22T16:16:17.103Z,1.70
2022-11-22T16:18:51.126Z,1.70
2022-11-22T16:21:28.112Z,1.60
2022-11-22T16:24:18.774Z,1.70
2022-11-22T16:27:04.073Z,1.70
2022-11-22T16:29:34.186Z,1.70
2022-11-22T16:32:20.210Z,1.70
2022-11-22T16:35:21.735Z,1.70
2022-11-22T16:37:57.137Z,1.70
2022-11-22T16:40:30.973Z,1.70
2022-11-22T16:43:09.419Z,1.70
2022-11-22T16:45:36.384Z,1.70
2022-11-22T16:50:50.137Z,1.70
2022-11-22T16:53:23.099Z,1.70
2022-11-22T16:55:50.314Z,1.70
2022-11-22T16:58:30.191Z,1.70
2022-11-22T17:01:03.174Z,1.70
2022-11-22T17:03:33.713Z,1.70
2022-11-22T17:06:07.072Z,1.70
2022-11-22T17:08:33.683Z,1.60
2022-11-22T17:11:00.557Z,1.70
2022-11-22T17:13:34.112Z,1.70
2022-11-22T17:16:00.778Z,1.70
2022-11-22T17:18:34.078Z,1.70
2022-11-22T17:21:00.733Z,1.70
2022-11-22T17:23:42.098Z,1.60
2022-11-22T17:26:10.145Z,1.70
2022-11-22T17:28:36.785Z,1.60
2022-11-22T17:31:12.060Z,1.60
2022-11-22T17:33:45.067Z,1.60
2022-11-22T17:36:41.169Z,1.70
2022-11-22T17:39:17.092Z,1.70
2022-11-22T17:41:50.124Z,1.60
2022-11-22T17:44:24.071Z,1.60
2022-11-22T17:46:50.665Z,1.70
2022-11-22T17:49:17.297Z,1.70
2022-11-22T17:51:51.137Z,1.70
2022-11-22T17:54:17.821Z,1.70
2022-11-22T17:56:51.542Z,1.70
2022-11-22T17:59:25.172Z,1.70
2022-11-22T18:01:58.133Z,1.70
2022-11-22T18:04:31.572Z,1.70
2022-11-22T18:07:05.234Z,1.70
2022-11-22T18:09:32.369Z,1.70
2022-11-22T18:11:59.287Z,1.80
2022-11-22T18:14:34.094Z,1.80
2022-11-22T18:17:00.756Z,1.80
2022-11-22T18:19:34.483Z,1.80
2022-11-22T18:22:01.152Z,1.80
2022-11-22T18:24:27.767Z,1.80
2022-11-22T18:27:01.082Z,1.80
2022-11-22T18:29:53.240Z,1.80
2022-11-22T18:32:19.901Z,1.80
2022-11-22T18:34:53.076Z,1.80
2022-11-22T18:37:26.133Z,1.80
2022-11-22T18:39:59.480Z,1.80
2022-11-22T18:42:33.066Z,1.70
2022-11-22T18:44:59.889Z,1.70
2022-11-22T18:47:33.086Z,1.80
2022-11-22T18:50:09.608Z,1.70
2022-11-22T18:52:39.114Z,1.70
2022-11-22T18:55:14.113Z,1.70
2022-11-22T18:57:40.731Z,1.70
2022-11-22T19:00:08.605Z,1.70
2022-11-22T19:02:42.109Z,1.80
2022-11-22T19:05:08.925Z,1.80
2022-11-22T19:07:35.678Z,1.80
2022-11-22T19:10:09.221Z,1.80
2022-11-22T19:12:35.870Z,1.80
2022-11-22T19:15:09.070Z,1.80
2022-11-22T19:17:37.646Z,1.80
2022-11-22T19:20:32.129Z,1.80
2022-11-22T19:22:57.644Z,1.80
2022-11-22T19:25:31.118Z,1.80
2022-11-22T19:28:04.040Z,1.80
2022-11-22T19:30:41.254Z,1.80
2022-11-22T19:33:17.171Z,1.80
2022-11-22T19:35:54.296Z,1.80
2022-11-22T19:38:27.148Z,1.80
2022-11-22T19:41:07.061Z,1.80
2022-11-22T19:43:33.657Z,1.80
2022-11-22T19:46:01.780Z,1.90
2022-11-22T19:48:35.132Z,1.90
2022-11-22T19:51:13.560Z,1.90
2022-11-22T19:53:47.070Z,1.90
2022-11-22T19:56:16.629Z,1.90
2022-11-22T19:58:44.820Z,1.90
2022-11-22T20:01:20.193Z,1.90
2022-11-22T20:03:57.080Z,1.90
2022-11-22T20:06:23.724Z,1.90
2022-11-22T20:08:50.359Z,1.90
2022-11-22T20:11:28.145Z,1.90
2022-11-22T20:13:54.824Z,1.90
2022-11-22T20:16:31.088Z,1.90
2022-11-22T20:19:03.755Z,1.90
2022-11-22T20:21:38.137Z,1.90
2022-11-22T20:24:06.297Z,1.90
2022-11-22T20:26:40.096Z,1.90
2022-11-22T20:29:08.594Z,1.90
2022-11-22T20:31:44.176Z,1.90
2022-11-22T20:34:17.618Z,2.00
2022-11-22T20:36:51.057Z,2.00
2022-11-22T20:39:17.664Z,2.00
2022-11-22T20:42:26.403Z,2.00
2022-11-22T20:44:51.055Z,1.90
2022-11-22T20:47:17.712Z,2.00
2022-11-22T20:49:51.072Z,2.00
2022-11-22T20:52:17.661Z,2.00
2022-11-22T20:54:51.062Z,1.90
2022-11-22T20:57:17.757Z,2.00
2022-11-22T20:59:51.085Z,2.00
2022-11-22T21:02:18.037Z,2.00
2022-11-22T21:04:44.687Z,1.90
2022-11-22T21:07:18.160Z,2.00
2022-11-22T21:09:44.774Z,2.00
2022-11-22T21:12:11.518Z,2.00
2022-11-22T21:14:45.098Z,2.00
2022-11-22T21:17:39.323Z,2.00
2022-11-22T21:20:05.039Z,2.00
2022-11-22T21:22:38.054Z,2.00
2022-11-22T21:25:05.722Z,2.00
2022-11-22T21:27:32.585Z,2.00
2022-11-22T21:30:06.120Z,2.00
2022-11-22T21:32:32.846Z,2.00
2022-11-22T21:34:59.460Z,2.00
2022-11-22T21:37:33.050Z,2.00
2022-11-22T21:40:06.072Z,2.00
2022-11-22T21:42:40.727Z,2.00
2022-11-22T21:45:15.059Z,2.00
2022-11-22T21:47:41.951Z,2.00
2022-11-22T21:50:11.854Z,2.00
2022-11-22T21:52:45.116Z,2.00
2022-11-22T21:55:12.031Z,2.00
2022-11-22T21:57:45.071Z,2.00
2022-11-22T22:00:19.143Z,1.90
2022-11-22T22:02:45.735Z,1.90
2022-11-22T22:05:12.376Z,1.90
2022-11-22T22:07:52.440Z,1.90
2022-11-22T22:10:19.778Z,1.90
2022-11-22T22:12:56.100Z,1.80
2022-11-22T22:15:29.052Z,1.80
2022-11-22T22:17:55.647Z,1.80
2022-11-22T22:20:22.993Z,1.80
2022-11-22T22:22:56.059Z,1.70
2022-11-22T22:25:29.170Z,1.70
2022-11-22T22:28:04.105Z,1.60
2022-11-22T22:30:30.695Z,1.60
2022-11-22T22:33:05.120Z,1.60
2022-11-22T22:35:38.060Z,1.60
2022-11-22T22:38:04.632Z,1.60
2022-11-22T22:40:38.115Z,1.70
2022-11-22T22:43:18.077Z,1.70
2022-11-22T22:45:51.138Z,1.70
2022-11-22T22:48:18.520Z,1.70
2022-11-22T22:50:52.042Z,1.70
2022-11-22T22:53:25.056Z,1.80
2022-11-22T22:56:02.076Z,1.80
2022-11-22T22:58:28.724Z,1.80
2022-11-22T23:00:55.466Z,1.80
2022-11-22T23:03:29.123Z,1.80
2022-11-22T23:05:55.745Z,1.80
2022-11-22T23:08:29.109Z,1.80
2022-11-22T23:11:01.304Z,1.70
2022-11-22T23:13:34.055Z,1.70
2022-11-22T23:16:08.114Z,1.70
2022-11-22T23:18:38.526Z,1.60
2022-11-22T23:21:07.268Z,1.60
2022-11-22T23:23:41.090Z,1.50
2022-11-22T23:26:10.639Z,1.50
2022-11-22T23:28:44.108Z,1.40
2022-11-22T23:31:13.622Z,1.40
2022-11-22T23:33:42.068Z,1.30
2022-11-22T23:36:18.166Z,1.30
2022-11-22T23:38:45.622Z,1.30
2022-11-22T23:41:27.054Z,1.20
2022-11-22T23:43:55.355Z,1.20
2022-11-22T23:46:24.859Z,1.20
2022-11-22T23:49:03.030Z,1.20
2022-11-22T23:51:31.787Z,1.20
2022-11-22T23:54:00.737Z,1.20
2022-11-22T23:56:35.065Z,1.20
2022-11-22T23:59:02.219Z,1.20
